Página principal
METAR-TAF:

METAR-TAF

Aeroportos :

Aeroporto Internacional Harbin Taiping

Harbin, China

latitude: 45-45N, longitude: 126-46E, altura: 143 m

Observação actual do tempo

O boletim foi feito há 1 hora e 1 minutos, às 11:00 UTC
Vento 4 kt de norte
Temperatura -1°C
Humidade 50%
Pressão 1016 hPa
Visibilidade 10 km ou mais
sem nuvens abaixo de 1500 metros e sem cumulonimbus

METAR: ZYHB 261100Z 35002MPS CAVOK M01/M10 Q1016 NOSIG

Hora: 20:01 (12:01 UTC)

Previsão

O boletim foi feito há 2 horas e 50 minutos, às 09:11 UTC
Previsão válida de 26 às 12 UTC a 27 às 12 UTC
Vento 8 kt de nor-noroeste
Visibilidade: 6000 m
Poucas nuvensa uma altura de 3000 ft

TAF: ZYHB 260911Z 2612/2712 33004MPS 6000 FEW030 TX04/2706Z TNM07/21Z

Observações e previsões do tempo de mais de 4000 aeroportos (mensagens METAR e TAF).

As estações disponíveis são os pontos amarelos e vermelhos sobre o mapa.

Mova o rato sobre o mapa para ver o nome da estação.

Depois clique no ponto para visualizar as observações e previsões meteorológicas.

Para alterar o mapa : clique nos botões verdes com uma cruz preta para aumentar o zoom; no botão verde com uma pitada de zoom; ou nas setas verdes para mapas adjacentes.


METAR-TAF: